首页
METAR-TAF:

METAR-TAF

机场 :

Las Cruces International Airport

拉斯克鲁塞斯, 新墨西哥州, 美国

纬度: 32-17-22N, 经度: 106-55-19W, 海拔: 1358米

当前天气观测

该预报发布于23分钟前的14:55 UTC
风速9节,风向西转西南
温度 14°C
湿度 24%
气压 1017 hPa
能見度: 16.1公里
天空无云

METAR: KLRU 031455Z AUTO 25009KT 10SM CLR 14/M06 A3003 RMK AO2 T01411056

时间: 08:18 (15:18 UTC)

预报

该预报发布于3小时和52分钟前的11:26 UTC
预报有效从03日的 12点(UTC)到 04日的 12点(UTC)
风速8节,风向西南
能見度: 10公里
天空无云
从 03日的 1700点(UTC)
风速20节,风向西,有时为30节阵风
能見度: 9.7公里
少量云层高于25000英尺
高吹尘
从 04日的 0200点(UTC)
风速8节,风向西
能見度: 10公里
散云层高于25000英尺

TAF: KLRU 031126Z 0312/0412 23008KT P6SM SKC FM031700 26020G30KT 6SM BLDU FEW250 FM040200 26008KT P6SM SCT250

超过4000个机场的气象观测和天气预报(METAR&TAF报告)。

可查询的气象台以黄色和红色小点在地图上表示。

将鼠标移到小点上方,可查看气象台名称。

然后点击查看天气观测和预报。

如需切换地图:点击带黑十字的绿色按钮放大地图;点击带横线的绿色按钮缩小地图;或者点击绿色箭头查看邻近地区的地图。


METAR-TAF: